createdAt,value
2023-05-10T00:00:25.262Z,4.34
2023-05-10T00:02:52.188Z,4.33
2023-05-10T00:05:18.900Z,4.30
2023-05-10T00:07:48.332Z,4.18
2023-05-10T00:10:15.220Z,4.11
2023-05-10T00:12:44.681Z,4.09
2023-05-10T00:15:12.134Z,4.11
2023-05-10T00:17:40.647Z,4.07
2023-05-10T00:20:07.832Z,4.02
2023-05-10T00:22:34.504Z,3.96
2023-05-10T00:25:01.132Z,3.93
2023-05-10T00:27:27.751Z,3.85
2023-05-10T00:29:54.476Z,3.92
2023-05-10T00:32:21.770Z,3.87
2023-05-10T00:34:48.590Z,3.91
2023-05-10T00:37:15.225Z,3.90
2023-05-10T00:39:41.760Z,3.82
2023-05-10T00:42:08.427Z,3.84
2023-05-10T00:44:35.060Z,3.75
2023-05-10T00:47:01.814Z,3.67
2023-05-10T00:49:29.477Z,3.67
2023-05-10T00:51:56.504Z,3.60
2023-05-10T00:54:23.198Z,3.61
2023-05-10T00:56:50.447Z,3.56
2023-05-10T00:59:18.832Z,3.63
2023-05-10T01:01:46.830Z,3.52
2023-05-10T01:04:14.467Z,3.43
2023-05-10T01:06:42.531Z,3.38
2023-05-10T01:09:09.610Z,3.28
2023-05-10T01:11:37.810Z,3.19
2023-05-10T01:14:05.113Z,3.21
2023-05-10T01:16:43.398Z,3.25
2023-05-10T01:19:30.609Z,3.25
2023-05-10T01:22:00.457Z,3.21
2023-05-10T01:24:30.210Z,3.09
2023-05-10T01:27:18.090Z,2.96
2023-05-10T01:30:21.855Z,2.94
2023-05-10T01:33:10.283Z,2.90
2023-05-10T01:35:42.780Z,2.95
2023-05-10T01:38:20.265Z,3.00
2023-05-10T01:41:04.757Z,2.96
2023-05-10T01:43:57.159Z,2.93
2023-05-10T01:46:38.275Z,2.80
2023-05-10T01:49:12.752Z,2.86
2023-05-10T01:51:45.934Z,2.84
2023-05-10T01:54:14.644Z,2.76
2023-05-10T01:56:43.117Z,2.78
2023-05-10T01:59:16.677Z,2.82
2023-05-10T02:01:45.188Z,2.78
2023-05-10T02:04:15.462Z,2.70
2023-05-10T02:06:43.602Z,2.70
2023-05-10T02:09:13.009Z,2.71
2023-05-10T02:11:42.699Z,2.73
2023-05-10T02:14:12.118Z,2.65
2023-05-10T02:16:40.493Z,2.74
2023-05-10T02:19:09.605Z,2.80
2023-05-10T02:21:36.977Z,2.74
2023-05-10T02:24:05.340Z,2.68
2023-05-10T02:26:35.146Z,2.68
2023-05-10T02:29:04.449Z,2.68
2023-05-10T02:31:36.315Z,2.76
2023-05-10T02:34:03.966Z,2.78
2023-05-10T02:36:31.221Z,2.82
2023-05-10T02:38:59.180Z,2.77
2023-05-10T02:41:27.513Z,2.75
2023-05-10T02:43:58.353Z,2.82
2023-05-10T02:46:25.141Z,2.91
2023-05-10T02:48:51.836Z,2.85
2023-05-10T02:51:20.233Z,2.88
2023-05-10T02:53:49.295Z,2.90
2023-05-10T02:56:24.763Z,2.92
2023-05-10T02:58:51.452Z,2.90
2023-05-10T03:01:18.246Z,2.99
2023-05-10T03:03:44.906Z,2.96
2023-05-10T03:06:11.565Z,2.86
2023-05-10T03:08:38.619Z,2.77
2023-05-10T03:11:33.451Z,2.63
2023-05-10T03:14:18.721Z,2.77
2023-05-10T03:16:58.543Z,2.75
2023-05-10T03:19:37.211Z,2.69
2023-05-10T03:22:08.680Z,2.61
2023-05-10T03:24:37.801Z,2.70
2023-05-10T03:27:05.489Z,2.72
2023-05-10T03:29:33.150Z,2.88
2023-05-10T03:32:02.557Z,2.97
2023-05-10T03:34:32.536Z,3.01
2023-05-10T03:36:59.259Z,3.12
2023-05-10T03:39:25.996Z,3.11
2023-05-10T03:41:52.584Z,3.25
2023-05-10T03:44:19.343Z,3.17
2023-05-10T03:46:46.109Z,3.17
2023-05-10T03:49:13.064Z,3.19
2023-05-10T03:51:39.819Z,3.28
2023-05-10T03:54:06.490Z,3.28
2023-05-10T03:56:33.594Z,3.28
2023-05-10T03:59:00.419Z,3.24
2023-05-10T04:01:27.075Z,3.29
2023-05-10T04:03:53.836Z,3.31
2023-05-10T04:06:20.601Z,3.30
2023-05-10T04:08:47.256Z,3.37
2023-05-10T04:11:14.743Z,3.39
2023-05-10T04:13:41.359Z,3.45
2023-05-10T04:16:08.084Z,3.51
2023-05-10T04:18:34.707Z,3.59
2023-05-10T04:21:01.831Z,3.56
2023-05-10T04:23:28.872Z,3.65
2023-05-10T04:26:02.782Z,3.72
2023-05-10T04:28:29.479Z,3.62
2023-05-10T04:31:09.641Z,3.72
2023-05-10T04:33:36.922Z,3.75
2023-05-10T04:36:04.714Z,3.81
2023-05-10T04:38:31.538Z,3.72
2023-05-10T04:41:12.160Z,3.84
2023-05-10T04:43:39.614Z,4.01
2023-05-10T04:46:07.140Z,4.14
2023-05-10T04:48:34.058Z,4.17
2023-05-10T04:51:00.789Z,4.16
2023-05-10T04:53:27.679Z,4.28
2023-05-10T04:55:54.311Z,4.31
2023-05-10T04:58:23.255Z,4.31
2023-05-10T05:00:50.025Z,4.45
2023-05-10T05:03:16.814Z,4.39
2023-05-10T05:05:44.325Z,4.53
2023-05-10T05:08:10.946Z,4.67
2023-05-10T05:10:37.676Z,4.77
2023-05-10T05:13:04.267Z,4.89
2023-05-10T05:15:31.790Z,4.91
2023-05-10T05:18:01.364Z,5.06
2023-05-10T05:20:28.004Z,5.24
2023-05-10T05:22:54.664Z,5.37
2023-05-10T05:25:21.290Z,5.45
2023-05-10T05:27:47.935Z,5.51
2023-05-10T05:30:14.683Z,5.59
2023-05-10T05:32:41.429Z,5.85
2023-05-10T05:35:08.553Z,5.94
2023-05-10T05:37:35.313Z,5.99
2023-05-10T05:40:02.821Z,6.10
2023-05-10T05:42:29.452Z,6.18
2023-05-10T05:44:56.041Z,6.32
2023-05-10T05:47:22.792Z,6.47
2023-05-10T05:49:49.457Z,6.51
2023-05-10T05:52:16.215Z,6.71
2023-05-10T05:54:42.858Z,6.70
2023-05-10T05:57:10.013Z,6.73
2023-05-10T05:59:36.811Z,6.87
2023-05-10T06:02:03.516Z,6.99
2023-05-10T06:04:30.174Z,7.19
2023-05-10T06:06:56.817Z,7.28
2023-05-10T06:09:25.547Z,7.36
2023-05-10T06:11:52.185Z,7.46
2023-05-10T06:14:21.040Z,7.49
2023-05-10T06:16:47.790Z,7.53
2023-05-10T06:19:14.414Z,7.70
2023-05-10T06:21:41.029Z,7.84
2023-05-10T06:24:07.890Z,7.99
2023-05-10T06:26:34.630Z,8.01
2023-05-10T06:29:01.208Z,8.12
2023-05-10T06:31:27.915Z,8.23
2023-05-10T06:33:56.638Z,8.38
2023-05-10T06:36:27.588Z,8.47
2023-05-10T06:38:54.410Z,8.65
2023-05-10T06:41:23.974Z,8.79
2023-05-10T06:43:51.277Z,8.98
2023-05-10T06:46:20.626Z,9.13
2023-05-10T06:48:47.382Z,9.25
2023-05-10T06:51:13.918Z,9.42
2023-05-10T06:53:43.273Z,9.58
2023-05-10T06:56:09.730Z,9.68
2023-05-10T06:58:36.196Z,9.82
2023-05-10T07:01:03.283Z,9.85
2023-05-10T07:03:33.130Z,9.94
2023-05-10T07:06:07.810Z,10.10
2023-05-10T07:08:37.487Z,10.21
2023-05-10T07:11:05.183Z,10.44
2023-05-10T07:13:35.315Z,10.59
2023-05-10T07:16:03.078Z,10.76
2023-05-10T07:18:29.808Z,10.93
2023-05-10T07:20:57.639Z,10.94
2023-05-10T07:23:24.310Z,10.74
2023-05-10T07:25:53.269Z,10.56
2023-05-10T07:28:20.093Z,10.83
2023-05-10T07:30:46.817Z,10.74
2023-05-10T07:33:14.582Z,10.93
2023-05-10T07:35:41.081Z,10.83
2023-05-10T07:38:07.652Z,11.11
2023-05-10T07:40:34.251Z,10.74
2023-05-10T07:43:03.848Z,10.79
2023-05-10T07:45:30.409Z,11.03
2023-05-10T07:47:57.019Z,11.22
2023-05-10T07:50:24.352Z,11.48
2023-05-10T07:52:51.060Z,11.17
2023-05-10T07:55:19.283Z,11.36
2023-05-10T07:57:45.847Z,11.70
2023-05-10T08:00:14.384Z,11.62
2023-05-10T08:02:41.636Z,11.92
2023-05-10T08:05:08.302Z,11.98
2023-05-10T08:07:34.856Z,12.14
2023-05-10T08:10:01.407Z,12.09
2023-05-10T08:12:27.833Z,11.77
2023-05-10T08:14:54.402Z,11.87
2023-05-10T08:17:22.103Z,12.33
2023-05-10T08:19:51.291Z,12.31
2023-05-10T08:22:18.035Z,12.01
2023-05-10T08:24:47.295Z,11.91
2023-05-10T08:27:13.750Z,12.07
2023-05-10T08:29:49.462Z,11.98
2023-05-10T08:32:16.755Z,11.90
2023-05-10T08:34:43.302Z,11.81
2023-05-10T08:37:09.784Z,12.06
2023-05-10T08:39:36.723Z,12.02
2023-05-10T08:42:04.940Z,12.08
2023-05-10T08:44:40.192Z,12.24
2023-05-10T08:47:08.153Z,12.13
2023-05-10T08:49:35.814Z,12.25
2023-05-10T08:52:06.959Z,12.27
2023-05-10T08:54:34.331Z,12.29
2023-05-10T08:57:01.375Z,12.35
2023-05-10T08:59:28.331Z,12.31
2023-05-10T09:01:56.861Z,12.29
2023-05-10T09:04:23.991Z,12.40
2023-05-10T09:06:50.874Z,12.47
2023-05-10T09:09:18.256Z,12.53
2023-05-10T09:11:45.701Z,12.66
2023-05-10T09:14:13.634Z,12.80
2023-05-10T09:16:41.073Z,12.79
2023-05-10T09:19:10.723Z,12.85
2023-05-10T09:21:40.197Z,12.71
2023-05-10T09:24:08.203Z,12.84
2023-05-10T09:26:45.294Z,12.91
2023-05-10T09:29:23.284Z,13.21
2023-05-10T09:31:55.788Z,-144.75
2023-05-10T09:34:29.553Z,-144.75
2023-05-10T09:37:01.769Z,-144.75
2023-05-10T09:39:33.112Z,13.21
2023-05-10T09:42:00.790Z,13.78
2023-05-10T09:44:27.648Z,13.74
2023-05-10T09:46:54.196Z,14.01
2023-05-10T09:51:48.749Z,14.30
2023-05-10T09:54:16.689Z,14.40
2023-05-10T09:56:43.558Z,14.21
2023-05-10T09:59:13.587Z,14.28
2023-05-10T10:01:40.407Z,14.11
2023-05-10T10:04:08.414Z,13.91
2023-05-10T10:06:41.052Z,14.06
2023-05-10T10:09:08.034Z,14.29
2023-05-10T10:11:39.136Z,14.42
2023-05-10T10:14:06.345Z,14.62
2023-05-10T10:16:33.397Z,14.54
2023-05-10T10:19:00.069Z,14.27
2023-05-10T10:21:26.725Z,14.85
2023-05-10T10:23:54.115Z,15.19
2023-05-10T10:26:22.142Z,15.72
2023-05-10T10:29:00.574Z,15.78
2023-05-10T10:31:35.861Z,15.79
2023-05-10T10:34:03.061Z,16.20
2023-05-10T10:36:30.097Z,16.58
2023-05-10T10:39:00.276Z,16.31
2023-05-10T10:41:32.059Z,16.30
2023-05-10T10:44:31.874Z,16.09
2023-05-10T10:47:15.433Z,16.51
2023-05-10T10:49:44.852Z,16.15
2023-05-10T10:52:16.917Z,15.97
2023-05-10T10:54:51.118Z,15.31
2023-05-10T10:57:19.518Z,15.56
2023-05-10T10:59:46.595Z,15.97
2023-05-10T11:02:43.138Z,16.71
2023-05-10T11:05:25.749Z,16.79
2023-05-10T11:07:53.640Z,16.51
2023-05-10T11:10:23.698Z,16.51
2023-05-10T11:13:11.492Z,16.39
2023-05-10T11:15:41.657Z,16.30
2023-05-10T11:18:18.884Z,16.10
2023-05-10T11:20:47.734Z,16.38
2023-05-10T11:23:16.842Z,15.98
2023-05-10T11:25:45.072Z,16.06
2023-05-10T11:28:14.427Z,15.67
2023-05-10T11:30:42.025Z,15.83
2023-05-10T11:33:09.378Z,16.13
2023-05-10T11:35:43.424Z,16.30
2023-05-10T11:38:10.971Z,16.23
2023-05-10T11:40:38.408Z,16.26
2023-05-10T11:43:05.480Z,16.34
2023-05-10T11:45:35.395Z,16.15
2023-05-10T11:48:02.793Z,16.00
2023-05-10T11:50:29.705Z,15.80
2023-05-10T11:52:56.886Z,15.64
2023-05-10T11:55:23.577Z,15.93
2023-05-10T11:57:52.881Z,15.61
2023-05-10T12:00:19.691Z,15.65
2023-05-10T12:02:46.676Z,15.96
2023-05-10T12:05:13.257Z,16.14
2023-05-10T12:07:39.780Z,16.19
2023-05-10T12:10:16.607Z,15.64
2023-05-10T12:12:44.523Z,15.69
2023-05-10T12:15:24.551Z,15.93
2023-05-10T12:17:51.545Z,16.05
2023-05-10T12:20:20.025Z,15.98
2023-05-10T12:22:54.321Z,15.97
2023-05-10T12:25:23.176Z,16.15
2023-05-10T12:27:54.685Z,16.25
2023-05-10T12:30:24.612Z,16.41
2023-05-10T12:32:52.553Z,16.36
2023-05-10T12:35:22.906Z,15.94
2023-05-10T12:37:52.083Z,16.32
2023-05-10T12:40:18.786Z,16.34
2023-05-10T12:42:46.090Z,16.83
2023-05-10T12:45:12.615Z,16.34
2023-05-10T12:47:40.789Z,16.80
2023-05-10T12:50:09.031Z,17.24
2023-05-10T12:52:35.770Z,17.32
2023-05-10T12:55:02.653Z,16.76
2023-05-10T12:57:29.356Z,16.75
2023-05-10T12:59:56.165Z,17.67
2023-05-10T13:02:24.111Z,16.79
2023-05-10T13:04:51.185Z,16.62
2023-05-10T13:07:17.859Z,16.51
2023-05-10T13:09:44.466Z,16.43
2023-05-10T13:12:11.259Z,16.47
2023-05-10T13:14:37.978Z,16.38
2023-05-10T13:17:04.535Z,17.43
2023-05-10T13:19:31.205Z,17.82
2023-05-10T13:21:57.837Z,17.43
2023-05-10T13:24:24.373Z,17.23
2023-05-10T13:26:50.957Z,16.83
2023-05-10T13:29:19.225Z,16.80
2023-05-10T13:31:46.039Z,16.58
2023-05-10T13:34:12.552Z,16.61
2023-05-10T13:36:39.178Z,16.66
2023-05-10T13:39:06.408Z,16.49
2023-05-10T13:41:33.131Z,16.44
2023-05-10T13:43:59.670Z,16.65
2023-05-10T13:46:26.152Z,16.70
2023-05-10T13:48:52.755Z,16.66
2023-05-10T13:51:19.305Z,16.64
2023-05-10T13:53:46.000Z,16.58
2023-05-10T13:56:12.589Z,16.46
2023-05-10T13:58:39.173Z,16.46
2023-05-10T14:01:06.012Z,16.53
2023-05-10T14:03:33.658Z,16.62
2023-05-10T14:06:00.405Z,16.90
2023-05-10T14:08:28.138Z,16.90
2023-05-10T14:10:54.853Z,16.63
2023-05-10T14:13:21.397Z,16.55
2023-05-10T14:15:47.957Z,16.51
2023-05-10T14:18:14.454Z,16.54
2023-05-10T14:20:40.969Z,16.38
2023-05-10T14:23:08.405Z,16.40
2023-05-10T14:25:36.813Z,16.41
2023-05-10T14:28:03.379Z,16.16
2023-05-10T14:30:30.027Z,15.97
2023-05-10T14:32:56.681Z,15.96
2023-05-10T14:35:23.507Z,16.10
2023-05-10T14:37:50.431Z,17.08
2023-05-10T14:40:18.232Z,16.74
2023-05-10T14:42:45.114Z,16.51
2023-05-10T14:45:12.176Z,16.61
2023-05-10T14:47:38.703Z,16.52
2023-05-10T14:50:05.504Z,16.52
2023-05-10T14:52:34.268Z,16.56
2023-05-10T14:55:02.415Z,16.40
2023-05-10T14:57:31.066Z,16.53
2023-05-10T14:59:58.082Z,16.77
2023-05-10T15:02:25.154Z,16.74
2023-05-10T15:04:52.491Z,16.23
2023-05-10T15:07:19.443Z,16.35
2023-05-10T15:09:46.205Z,16.35
2023-05-10T15:12:12.687Z,16.30
2023-05-10T15:14:39.259Z,16.41
2023-05-10T15:17:07.400Z,16.20
2023-05-10T15:19:34.411Z,16.22
2023-05-10T15:22:00.918Z,16.25
2023-05-10T15:24:27.507Z,16.32
2023-05-10T15:26:54.994Z,16.20
2023-05-10T15:29:21.777Z,16.29
2023-05-10T15:31:49.085Z,16.15
2023-05-10T15:34:15.902Z,16.19
2023-05-10T15:36:42.526Z,16.21
2023-05-10T15:39:10.220Z,15.79
2023-05-10T15:41:38.000Z,15.74
2023-05-10T15:44:04.515Z,15.58
2023-05-10T15:46:31.467Z,15.65
2023-05-10T15:48:59.202Z,15.75
2023-05-10T15:51:28.593Z,15.64
2023-05-10T15:54:05.924Z,15.54
2023-05-10T15:56:37.025Z,15.54
2023-05-10T15:59:04.078Z,15.53
2023-05-10T16:01:31.421Z,15.48
2023-05-10T16:03:58.178Z,15.43
2023-05-10T16:06:24.697Z,15.35
2023-05-10T16:08:52.915Z,15.35
2023-05-10T16:11:21.641Z,15.39
2023-05-10T16:13:48.386Z,15.31
2023-05-10T16:16:14.926Z,15.22
2023-05-10T16:18:41.842Z,15.22
2023-05-10T16:21:08.388Z,15.09
2023-05-10T16:23:34.998Z,14.98
2023-05-10T16:26:01.480Z,14.93
2023-05-10T16:28:28.099Z,15.02
2023-05-10T16:30:54.852Z,14.84
2023-05-10T16:33:21.505Z,14.71
2023-05-10T16:35:48.145Z,14.71
2023-05-10T16:38:15.059Z,14.75
2023-05-10T16:40:41.603Z,14.74
2023-05-10T16:43:08.259Z,14.63
2023-05-10T16:45:35.096Z,14.46
2023-05-10T16:48:01.860Z,14.37
2023-05-10T16:50:28.393Z,14.37
2023-05-10T16:52:55.053Z,14.17
2023-05-10T16:55:22.901Z,14.12
2023-05-10T16:57:50.775Z,14.07
2023-05-10T17:00:17.474Z,14.01
2023-05-10T17:02:44.037Z,13.91
2023-05-10T17:05:10.544Z,13.89
2023-05-10T17:07:37.033Z,13.85
2023-05-10T17:10:03.619Z,13.83
2023-05-10T17:12:30.464Z,13.75
2023-05-10T17:14:57.564Z,13.66
2023-05-10T17:17:24.153Z,13.52
2023-05-10T17:19:51.197Z,13.40
2023-05-10T17:22:17.733Z,13.26
2023-05-10T17:24:45.124Z,13.22
2023-05-10T17:27:11.700Z,13.12
2023-05-10T17:29:38.311Z,12.94
2023-05-10T17:32:05.265Z,12.80
2023-05-10T17:34:31.799Z,12.72
2023-05-10T17:37:00.567Z,12.56
2023-05-10T17:39:27.120Z,12.52
2023-05-10T17:41:53.676Z,12.48
2023-05-10T17:44:20.281Z,12.15
2023-05-10T17:46:46.871Z,12.14
2023-05-10T17:49:13.431Z,12.05
2023-05-10T17:51:41.552Z,12.02
2023-05-10T17:54:08.084Z,11.91
2023-05-10T17:56:34.569Z,11.75
2023-05-10T17:59:01.059Z,11.65
2023-05-10T18:01:27.756Z,11.57
2023-05-10T18:03:54.359Z,11.55
2023-05-10T18:06:20.901Z,11.48
2023-05-10T18:08:47.441Z,11.33
2023-05-10T18:11:13.919Z,11.30
2023-05-10T18:13:40.577Z,11.21
2023-05-10T18:16:08.945Z,11.07
2023-05-10T18:18:35.437Z,10.97
2023-05-10T18:21:02.223Z,10.94
2023-05-10T18:23:28.810Z,10.86
2023-05-10T18:25:55.308Z,10.81
2023-05-10T18:28:21.873Z,10.76
2023-05-10T18:30:48.465Z,10.71
2023-05-10T18:33:14.953Z,10.61
2023-05-10T18:35:41.744Z,10.52
2023-05-10T18:38:09.830Z,10.47
2023-05-10T18:40:36.738Z,10.48
2023-05-10T18:43:03.571Z,10.45
2023-05-10T18:45:30.372Z,10.45
2023-05-10T18:47:57.182Z,10.34
2023-05-10T18:50:23.729Z,10.29
2023-05-10T18:52:50.715Z,10.31
2023-05-10T18:55:17.470Z,10.29
2023-05-10T18:57:45.208Z,10.32
2023-05-10T19:00:12.431Z,10.33
2023-05-10T19:02:39.770Z,10.26
2023-05-10T19:05:06.803Z,10.16
2023-05-10T19:07:33.830Z,10.25
2023-05-10T19:10:00.418Z,10.25
2023-05-10T19:12:26.899Z,10.07
2023-05-10T19:14:53.425Z,10.04
2023-05-10T19:17:20.234Z,10.01
2023-05-10T19:19:46.690Z,9.92
2023-05-10T19:22:13.731Z,9.88
2023-05-10T19:24:40.336Z,9.92
2023-05-10T19:27:06.904Z,9.93
2023-05-10T19:29:33.406Z,9.95
2023-05-10T19:32:00.850Z,9.79
2023-05-10T19:34:27.503Z,9.78
2023-05-10T19:36:54.624Z,9.58
2023-05-10T19:39:21.273Z,9.43
2023-05-10T19:41:50.023Z,9.48
2023-05-10T19:44:16.599Z,9.45
2023-05-10T19:46:43.177Z,9.37
2023-05-10T19:49:09.709Z,9.43
2023-05-10T19:51:36.206Z,9.40
2023-05-10T19:54:02.684Z,9.28
2023-05-10T19:56:29.730Z,9.33
2023-05-10T19:58:56.336Z,9.26
2023-05-10T20:01:22.955Z,9.17
2023-05-10T20:03:49.544Z,9.25
2023-05-10T20:06:16.130Z,9.20
2023-05-10T20:08:42.700Z,9.09
2023-05-10T20:11:09.230Z,9.07
2023-05-10T20:13:35.804Z,9.00
2023-05-10T20:16:03.827Z,8.82
2023-05-10T20:18:30.676Z,8.90
2023-05-10T20:20:58.402Z,8.78
2023-05-10T20:23:24.910Z,8.72
2023-05-10T20:25:51.580Z,8.69
2023-05-10T20:28:21.997Z,8.60
2023-05-10T20:30:50.603Z,8.52
2023-05-10T20:33:19.148Z,8.56
2023-05-10T20:35:45.709Z,8.64
2023-05-10T20:38:12.151Z,8.63
2023-05-10T20:40:38.625Z,8.59
2023-05-10T20:43:06.370Z,8.63
2023-05-10T20:45:32.878Z,8.51
2023-05-10T20:47:59.477Z,8.55
2023-05-10T20:50:25.993Z,8.48
2023-05-10T20:52:52.606Z,8.45
2023-05-10T20:55:19.595Z,8.44
2023-05-10T20:57:47.119Z,8.41
2023-05-10T21:00:14.296Z,8.47
2023-05-10T21:02:44.723Z,8.47
2023-05-10T21:05:11.283Z,8.48
2023-05-10T21:07:39.044Z,8.35
2023-05-10T21:10:07.439Z,8.25
2023-05-10T21:12:34.025Z,8.02
2023-05-10T21:15:00.508Z,7.98
2023-05-10T21:17:27.379Z,8.05
2023-05-10T21:19:54.207Z,8.01
2023-05-10T21:22:20.715Z,8.01
2023-05-10T21:24:47.410Z,8.03
2023-05-10T21:27:13.961Z,8.04
2023-05-10T21:29:40.574Z,7.97
2023-05-10T21:32:07.074Z,7.93
2023-05-10T21:34:33.818Z,7.95
2023-05-10T21:37:00.679Z,7.88
2023-05-10T21:39:27.161Z,7.80
2023-05-10T21:41:53.736Z,7.82
2023-05-10T21:44:20.252Z,7.92
2023-05-10T21:46:46.773Z,7.98
2023-05-10T21:49:13.335Z,7.95
2023-05-10T21:51:39.799Z,7.99
2023-05-10T21:54:06.326Z,7.87
2023-05-10T21:56:32.856Z,7.69
2023-05-10T21:58:59.309Z,7.63
2023-05-10T22:01:26.479Z,7.62
2023-05-10T22:03:53.092Z,7.60
2023-05-10T22:06:19.707Z,7.60
2023-05-10T22:08:46.187Z,7.61
2023-05-10T22:11:12.770Z,7.48
2023-05-10T22:13:39.224Z,7.45
2023-05-10T22:16:06.930Z,7.39
2023-05-10T22:18:33.407Z,7.37
2023-05-10T22:21:00.004Z,7.33
2023-05-10T22:23:26.548Z,7.30
2023-05-10T22:25:53.114Z,7.26
2023-05-10T22:28:20.273Z,7.27
2023-05-10T22:30:48.280Z,7.24
2023-05-10T22:33:14.839Z,7.31
2023-05-10T22:35:41.266Z,7.22
2023-05-10T22:38:07.780Z,7.18
2023-05-10T22:40:34.391Z,7.22
2023-05-10T22:43:01.094Z,7.13
2023-05-10T22:45:27.808Z,7.21
2023-05-10T22:47:54.605Z,7.12
2023-05-10T22:50:21.618Z,7.02
2023-05-10T22:52:48.361Z,6.89
2023-05-10T22:55:15.070Z,6.83
2023-05-10T22:57:41.647Z,6.69
2023-05-10T23:00:08.380Z,6.70
2023-05-10T23:02:34.976Z,6.74
2023-05-10T23:05:01.547Z,6.73
2023-05-10T23:07:28.170Z,6.63
2023-05-10T23:09:54.630Z,6.52
2023-05-10T23:12:21.170Z,6.42
2023-05-10T23:14:47.695Z,6.42
2023-05-10T23:17:14.250Z,6.41
2023-05-10T23:19:40.805Z,6.38
2023-05-10T23:22:07.727Z,6.53
2023-05-10T23:24:34.308Z,6.49
2023-05-10T23:27:00.754Z,6.39
2023-05-10T23:29:27.274Z,6.29
2023-05-10T23:31:53.876Z,6.27
2023-05-10T23:34:20.421Z,6.20
2023-05-10T23:36:46.993Z,6.09
2023-05-10T23:39:13.590Z,5.98
2023-05-10T23:41:40.069Z,5.94
2023-05-10T23:44:06.688Z,6.07
2023-05-10T23:46:33.167Z,6.14
2023-05-10T23:48:59.705Z,6.16
2023-05-10T23:51:26.234Z,6.23
2023-05-10T23:53:53.985Z,6.17
2023-05-10T23:56:20.521Z,6.03
2023-05-10T23:58:47.010Z,5.85
